Time;durP1;ratioP1;P1;durP2;ratioP2;P2;SDS_P1;SDS_P2;PMS_P1;PMS_P2;Temp;Humidity;BMP_temperature;BMP_pressure;BME280_temperature;BME280_humidity;BME280_pressure;Samples;Min_cycle;Max_cycle;Signal;HPM_P1;HPM_P2
2023/08/22 00:00:30;;;;;;;7.65;2.90;;;;;;;;;;5031641;28;20041;-65
2023/08/22 00:02:56;;;;;;;11.38;2.92;;;;;;;;;;5031255;28;20032;-66
2023/08/22 00:05:22;;;;;;;9.27;3.25;;;;;;;;;;5031456;28;20025;-67
2023/08/22 00:07:51;;;;;;;5.93;2.90;;;;;;;;;;5031380;28;20575;-66
2023/08/22 00:10:17;;;;;;;12.27;3.30;;;;;;;;;;5031284;28;20037;-67
2023/08/22 00:12:44;;;;;;;9.73;3.78;;;;;;;;;;5029164;28;20060;-66
2023/08/22 00:15:12;;;;;;;15.88;3.63;;;;;;;;;;5031625;28;20105;-67
2023/08/22 00:17:39;;;;;;;7.45;3.08;;;;;;;;;;5020159;28;20073;-67
2023/08/22 00:20:08;;;;;;;11.50;3.13;;;;;;;;;;5023255;28;20087;-66
2023/08/22 00:22:37;;;;;;;12.50;3.17;;;;;;;;;;5031076;28;20057;-66
2023/08/22 00:25:06;;;;;;;10.23;3.28;;;;;;;;;;5023495;28;20037;-66
2023/08/22 00:27:33;;;;;;;9.98;3.80;;;;;;;;;;5032304;28;20105;-66
2023/08/22 00:29:59;;;;;;;10.57;3.53;;;;;;;;;;5033241;28;20048;-67
2023/08/22 00:32:25;;;;;;;8.70;3.70;;;;;;;;;;5032430;28;20117;-66
2023/08/22 00:34:52;;;;;;;6.47;3.15;;;;;;;;;;5033115;28;20083;-66
2023/08/22 00:37:19;;;;;;;5.10;2.97;;;;;;;;;;5034166;28;20026;-66
2023/08/22 00:39:44;;;;;;;8.15;3.08;;;;;;;;;;5035412;28;20025;-67
2023/08/22 00:42:10;;;;;;;9.50;2.80;;;;;;;;;;5034328;28;20021;-66
2023/08/22 00:44:37;;;;;;;5.63;2.90;;;;;;;;;;5035210;28;20037;-67
2023/08/22 00:47:04;;;;;;;5.57;3.08;;;;;;;;;;5034150;28;20021;-67
2023/08/22 00:49:32;;;;;;;11.57;3.15;;;;;;;;;;5034047;28;20033;-67
2023/08/22 00:52:02;;;;;;;9.43;3.28;;;;;;;;;;5032077;28;20382;-67
2023/08/22 00:54:29;;;;;;;8.15;3.05;;;;;;;;;;5035460;28;20447;-67
2023/08/22 00:56:56;;;;;;;11.00;3.05;;;;;;;;;;5026730;28;20025;-67
2023/08/22 00:59:24;;;;;;;9.27;3.40;;;;;;;;;;5033871;28;20045;-67
2023/08/22 01:01:50;;;;;;;10.13;3.60;;;;;;;;;;5033673;28;20022;-67
2023/08/22 01:04:16;;;;;;;11.68;3.10;;;;;;;;;;5027811;28;20033;-66
2023/08/22 01:06:50;;;;;;;8.05;3.10;;;;;;;;;;5029219;28;20041;-67
2023/08/22 01:09:56;;;;;;;8.90;3.15;;;;;;;;;;5020492;28;20064;-66
2023/08/22 01:12:39;;;;;;;7.03;2.90;;;;;;;;;;4999366;28;20065;-66
2023/08/22 01:15:14;;;;;;;8.82;2.85;;;;;;;;;;4996251;28;20034;-67
2023/08/22 01:17:42;;;;;;;5.35;2.80;;;;;;;;;;5019645;28;20053;-66
2023/08/22 01:20:11;;;;;;;7.13;3.28;;;;;;;;;;5042330;28;20452;-66
2023/08/22 01:22:41;;;;;;;4.10;2.83;;;;;;;;;;5058165;28;20530;-66
2023/08/22 01:25:08;;;;;;;9.10;3.00;;;;;;;;;;5024778;28;20547;-66
2023/08/22 01:28:11;;;;;;;4.22;2.78;;;;;;;;;;5042247;28;20124;-66
2023/08/22 01:30:51;;;;;;;5.53;2.88;;;;;;;;;;5029488;28;20034;-66
2023/08/22 01:33:34;;;;;;;8.38;3.20;;;;;;;;;;5035964;28;20044;-67
2023/08/22 01:36:01;;;;;;;5.80;2.70;;;;;;;;;;5031457;28;20087;-67
2023/08/22 01:38:29;;;;;;;9.07;3.00;;;;;;;;;;5031454;28;20022;-67
2023/08/22 01:40:57;;;;;;;5.60;2.70;;;;;;;;;;5031869;28;20038;-66
2023/08/22 01:43:24;;;;;;;6.00;3.00;;;;;;;;;;5033261;28;20056;-66
2023/08/22 01:45:50;;;;;;;6.20;3.03;;;;;;;;;;5031585;28;20073;-66
2023/08/22 01:48:16;;;;;;;6.78;3.03;;;;;;;;;;5032147;28;20025;-66
2023/08/22 01:50:42;;;;;;;6.28;3.28;;;;;;;;;;5036748;28;20526;-65
2023/08/22 01:53:08;;;;;;;11.30;3.50;;;;;;;;;;5032178;28;20026;-66
2023/08/22 01:55:33;;;;;;;10.50;3.33;;;;;;;;;;5031910;28;20045;-66
2023/08/22 01:57:59;;;;;;;5.80;3.05;;;;;;;;;;5032177;28;20116;-66
2023/08/22 02:00:25;;;;;;;6.55;3.15;;;;;;;;;;5031570;28;20037;-66
2023/08/22 02:02:51;;;;;;;7.28;3.28;;;;;;;;;;5033304;28;20056;-66
2023/08/22 02:05:16;;;;;;;8.35;3.15;;;;;;;;;;5032025;28;20175;-66
2023/08/22 02:07:42;;;;;;;4.60;2.88;;;;;;;;;;5031706;28;20120;-66
2023/08/22 02:10:08;;;;;;;5.53;3.00;;;;;;;;;;5032267;28;20072;-66
2023/08/22 02:12:34;;;;;;;5.80;2.80;;;;;;;;;;5032152;28;20025;-67
2023/08/22 02:14:59;;;;;;;6.32;3.47;;;;;;;;;;5028945;28;20061;-67
2023/08/22 02:17:25;;;;;;;5.75;3.20;;;;;;;;;;5026687;28;20017;-68
2023/08/22 02:19:51;;;;;;;6.85;3.58;;;;;;;;;;5031795;28;20452;-66
2023/08/22 02:22:16;;;;;;;7.43;3.25;;;;;;;;;;5031658;28;20036;-66
2023/08/22 02:24:43;;;;;;;7.53;3.42;;;;;;;;;;5043264;28;20108;-66
2023/08/22 02:27:09;;;;;;;7.55;3.00;;;;;;;;;;5023419;28;20114;-66
2023/08/22 02:29:35;;;;;;;5.90;3.42;;;;;;;;;;5033138;28;20072;-66
2023/08/22 02:32:01;;;;;;;6.70;3.28;;;;;;;;;;5026995;28;20032;-66
2023/08/22 02:34:26;;;;;;;9.60;4.05;;;;;;;;;;5027374;28;20045;-66
2023/08/22 02:36:52;;;;;;;7.07;3.97;;;;;;;;;;5022788;28;20118;-65
2023/08/22 02:39:18;;;;;;;7.43;3.63;;;;;;;;;;5030643;28;20399;-65
2023/08/22 02:41:43;;;;;;;13.65;3.83;;;;;;;;;;5026331;28;20025;-66
2023/08/22 02:44:09;;;;;;;16.63;4.88;;;;;;;;;;5031347;28;20041;-66
2023/08/22 02:46:35;;;;;;;8.57;4.10;;;;;;;;;;5024306;28;20040;-66
2023/08/22 02:49:01;;;;;;;9.68;3.85;;;;;;;;;;5026659;28;20040;-66
2023/08/22 02:51:27;;;;;;;11.68;3.90;;;;;;;;;;5035928;28;20446;-66
2023/08/22 02:53:53;;;;;;;10.40;4.30;;;;;;;;;;5025916;28;20511;-67
2023/08/22 02:56:18;;;;;;;8.05;3.60;;;;;;;;;;5027591;28;20026;-67
2023/08/22 02:58:46;;;;;;;10.00;4.88;;;;;;;;;;5028532;28;20030;-66
2023/08/22 03:01:12;;;;;;;5.85;3.53;;;;;;;;;;5024392;28;20104;-66
2023/08/22 03:03:43;;;;;;;8.55;3.90;;;;;;;;;;5031990;28;20057;-67
2023/08/22 03:06:09;;;;;;;9.43;3.90;;;;;;;;;;5030263;28;20041;-66
2023/08/22 03:08:36;;;;;;;7.68;3.33;;;;;;;;;;5026655;28;20136;-66
2023/08/22 03:11:02;;;;;;;5.97;3.65;;;;;;;;;;5029376;28;20064;-66
2023/08/22 03:13:28;;;;;;;6.47;3.45;;;;;;;;;;5030868;28;20057;-66
2023/08/22 03:15:55;;;;;;;6.55;3.58;;;;;;;;;;5026957;28;20088;-67
2023/08/22 03:18:21;;;;;;;7.15;3.25;;;;;;;;;;5007282;28;20026;-66
2023/08/22 03:20:48;;;;;;;6.45;3.20;;;;;;;;;;5030333;28;20025;-66
2023/08/22 03:23:14;;;;;;;5.07;3.40;;;;;;;;;;5031751;28;20044;-66
2023/08/22 03:25:41;;;;;;;8.20;3.88;;;;;;;;;;5034228;28;20048;-66
2023/08/22 03:28:06;;;;;;;8.02;4.28;;;;;;;;;;5030228;28;20013;-66
2023/08/22 03:30:33;;;;;;;13.82;4.38;;;;;;;;;;5014062;28;20131;-66
2023/08/22 03:32:59;;;;;;;8.68;4.18;;;;;;;;;;5029451;28;20022;-66
2023/08/22 03:35:25;;;;;;;13.68;3.90;;;;;;;;;;5033318;28;20041;-66
2023/08/22 03:37:51;;;;;;;9.43;3.80;;;;;;;;;;5026336;28;20108;-66
2023/08/22 03:40:17;;;;;;;8.15;3.95;;;;;;;;;;5029884;28;20415;-66
2023/08/22 03:42:45;;;;;;;6.25;3.35;;;;;;;;;;5045967;28;20029;-66
2023/08/22 03:45:11;;;;;;;9.25;3.58;;;;;;;;;;5029946;28;20036;-66
2023/08/22 03:47:37;;;;;;;7.80;3.45;;;;;;;;;;5028975;28;20017;-67
2023/08/22 03:50:04;;;;;;;18.13;4.93;;;;;;;;;;5029462;28;20499;-67
2023/08/22 03:52:30;;;;;;;12.13;4.10;;;;;;;;;;5030028;28;20116;-67
2023/08/22 03:54:56;;;;;;;9.02;3.95;;;;;;;;;;5029332;28;20120;-66
2023/08/22 03:57:22;;;;;;;20.52;5.65;;;;;;;;;;5029149;28;20029;-67
2023/08/22 03:59:47;;;;;;;29.48;5.57;;;;;;;;;;5037160;28;20026;-66
2023/08/22 04:02:15;;;;;;;16.25;4.30;;;;;;;;;;5028790;28;20111;-66
2023/08/22 04:04:40;;;;;;;5.90;3.47;;;;;;;;;;5029320;28;20120;-66
2023/08/22 04:07:06;;;;;;;17.90;5.60;;;;;;;;;;5030680;28;20473;-67
2023/08/22 04:09:32;;;;;;;17.77;4.95;;;;;;;;;;5032203;28;20040;-66
2023/08/22 04:11:59;;;;;;;11.30;4.85;;;;;;;;;;5029175;28;20028;-67
2023/08/22 04:14:25;;;;;;;16.23;5.20;;;;;;;;;;5030801;28;20021;-66
2023/08/22 04:16:50;;;;;;;16.85;4.40;;;;;;;;;;5028779;28;20026;-66
2023/08/22 04:19:16;;;;;;;10.75;4.00;;;;;;;;;;5029090;28;20471;-66
2023/08/22 04:21:42;;;;;;;13.20;5.35;;;;;;;;;;5028458;28;20021;-67
2023/08/22 04:24:09;;;;;;;12.88;5.25;;;;;;;;;;5028678;28;20029;-66
2023/08/22 04:26:36;;;;;;;11.77;4.28;;;;;;;;;;5032381;28;20117;-67
2023/08/22 04:29:02;;;;;;;13.35;4.50;;;;;;;;;;5027805;28;20109;-66
2023/08/22 04:31:28;;;;;;;7.35;3.88;;;;;;;;;;5034875;28;20052;-67
2023/08/22 04:33:54;;;;;;;9.07;3.75;;;;;;;;;;5032847;28;20619;-67
2023/08/22 04:36:20;;;;;;;13.90;4.13;;;;;;;;;;5029543;28;20029;-67
2023/08/22 04:38:49;;;;;;;12.95;4.93;;;;;;;;;;5029926;28;20036;-66
2023/08/22 04:41:16;;;;;;;18.00;4.95;;;;;;;;;;5028904;28;20127;-67
2023/08/22 04:43:47;;;;;;;11.27;4.22;;;;;;;;;;5029527;28;20065;-66
2023/08/22 04:46:14;;;;;;;9.95;4.20;;;;;;;;;;5029308;28;20065;-67
2023/08/22 04:48:40;;;;;;;10.15;4.20;;;;;;;;;;5030103;28;20067;-66
2023/08/22 04:51:05;;;;;;;13.00;4.20;;;;;;;;;;5037516;28;20131;-66
2023/08/22 04:53:31;;;;;;;18.92;4.63;;;;;;;;;;5029121;28;20106;-66
2023/08/22 04:55:57;;;;;;;17.27;5.40;;;;;;;;;;5038821;28;20394;-67
2023/08/22 04:58:22;;;;;;;10.80;3.92;;;;;;;;;;5029568;28;20030;-66
2023/08/22 05:00:48;;;;;;;13.98;4.70;;;;;;;;;;5028941;28;20061;-66
2023/08/22 05:03:15;;;;;;;15.73;4.57;;;;;;;;;;5028333;28;20032;-66
2023/08/22 05:05:42;;;;;;;10.38;4.30;;;;;;;;;;5036285;28;20499;-67
2023/08/22 05:08:08;;;;;;;10.07;3.63;;;;;;;;;;5028510;28;20030;-67
2023/08/22 05:10:35;;;;;;;13.23;4.28;;;;;;;;;;5035670;28;20045;-68
2023/08/22 05:13:01;;;;;;;21.25;4.95;;;;;;;;;;5027597;28;20310;-67
2023/08/22 05:15:26;;;;;;;16.17;3.88;;;;;;;;;;5032174;28;20057;-68
2023/08/22 05:17:53;;;;;;;13.15;3.72;;;;;;;;;;5031623;28;20047;-69
2023/08/22 05:20:19;;;;;;;12.35;3.58;;;;;;;;;;5033740;28;20038;-69
2023/08/22 05:22:44;;;;;;;14.18;4.40;;;;;;;;;;5031542;28;20083;-68
2023/08/22 05:25:10;;;;;;;11.20;3.75;;;;;;;;;;5029724;28;20037;-67
2023/08/22 05:27:37;;;;;;;13.60;3.92;;;;;;;;;;5028758;28;20021;-68
2023/08/22 05:30:06;;;;;;;11.43;4.15;;;;;;;;;;5029763;28;20033;-67
2023/08/22 05:32:32;;;;;;;13.13;4.18;;;;;;;;;;5031863;28;20138;-68
2023/08/22 05:34:58;;;;;;;9.93;3.80;;;;;;;;;;5015937;28;20033;-66
2023/08/22 05:37:25;;;;;;;12.25;3.97;;;;;;;;;;5031948;28;20041;-67
2023/08/22 05:39:51;;;;;;;15.38;4.03;;;;;;;;;;5032280;28;20033;-68
2023/08/22 05:42:17;;;;;;;12.40;4.60;;;;;;;;;;5033885;28;20486;-67
2023/08/22 05:44:42;;;;;;;28.35;4.80;;;;;;;;;;5043065;28;20061;-67
2023/08/22 05:47:10;;;;;;;15.80;4.95;;;;;;;;;;5031707;28;20056;-67
2023/08/22 05:49:36;;;;;;;17.63;4.90;;;;;;;;;;5031864;28;20056;-68
2023/08/22 05:52:04;;;;;;;8.93;4.20;;;;;;;;;;5032037;28;20025;-66
2023/08/22 05:54:33;;;;;;;21.00;4.97;;;;;;;;;;5031742;28;20049;-68
2023/08/22 05:57:01;;;;;;;26.58;4.85;;;;;;;;;;5031725;28;20029;-67
2023/08/22 05:59:27;;;;;;;18.50;5.13;;;;;;;;;;5032276;28;20025;-68
2023/08/22 06:01:53;;;;;;;21.70;4.50;;;;;;;;;;5031458;28;20038;-66
2023/08/22 06:04:20;;;;;;;10.45;5.20;;;;;;;;;;5013347;28;20107;-67
2023/08/22 06:06:46;;;;;;;9.63;4.90;;;;;;;;;;5044619;28;20025;-68
2023/08/22 06:09:12;;;;;;;13.85;3.95;;;;;;;;;;5027206;28;20028;-67
2023/08/22 06:11:38;;;;;;;9.70;3.83;;;;;;;;;;5030239;28;20037;-68
2023/08/22 06:14:04;;;;;;;10.48;4.07;;;;;;;;;;5031125;28;20028;-68
2023/08/22 06:16:32;;;;;;;14.35;3.83;;;;;;;;;;5030949;28;20049;-67
2023/08/22 06:18:58;;;;;;;19.27;4.90;;;;;;;;;;5029936;28;20723;-68
2023/08/22 06:21:23;;;;;;;12.93;4.18;;;;;;;;;;5031764;28;20026;-68
2023/08/22 06:23:49;;;;;;;11.88;4.60;;;;;;;;;;5027095;28;20153;-69
2023/08/22 06:26:17;;;;;;;11.27;4.30;;;;;;;;;;5021352;28;20045;-67
2023/08/22 06:28:43;;;;;;;9.43;4.05;;;;;;;;;;5037199;28;20048;-70
2023/08/22 06:31:09;;;;;;;9.77;4.20;;;;;;;;;;5033492;28;20063;-70
2023/08/22 06:33:36;;;;;;;16.35;4.50;;;;;;;;;;5034750;28;20029;-70
2023/08/22 06:36:03;;;;;;;9.18;4.30;;;;;;;;;;5050750;28;20039;-70
2023/08/22 06:38:29;;;;;;;14.65;4.68;;;;;;;;;;5048719;28;20029;-69
2023/08/22 06:40:55;;;;;;;9.13;4.38;;;;;;;;;;5050151;28;20089;-70
2023/08/22 06:43:25;;;;;;;11.43;4.65;;;;;;;;;;5052480;28;20033;-71
2023/08/22 06:45:58;;;;;;;16.97;5.27;;;;;;;;;;5038670;28;20559;-71
2023/08/22 06:48:26;;;;;;;17.42;5.28;;;;;;;;;;5031433;28;20109;-71
2023/08/22 06:50:53;;;;;;;18.58;5.28;;;;;;;;;;5030456;28;20106;-71
2023/08/22 06:53:20;;;;;;;14.45;4.80;;;;;;;;;;5035446;28;20095;-71
2023/08/22 06:55:46;;;;;;;13.80;6.25;;;;;;;;;;5052572;28;20029;-71
2023/08/22 06:58:12;;;;;;;13.30;4.35;;;;;;;;;;5051262;28;20037;-70
2023/08/22 07:00:38;;;;;;;9.43;4.40;;;;;;;;;;5052497;28;20032;-71
2023/08/22 07:03:04;;;;;;;10.48;4.97;;;;;;;;;;5052409;28;20505;-69
2023/08/22 07:05:30;;;;;;;13.80;4.55;;;;;;;;;;5052214;28;20036;-70
2023/08/22 07:07:56;;;;;;;15.10;4.75;;;;;;;;;;5051942;28;20402;-70
2023/08/22 07:10:22;;;;;;;14.60;4.45;;;;;;;;;;5052443;28;20052;-70
2023/08/22 07:12:48;;;;;;;11.20;4.38;;;;;;;;;;5047164;28;20060;-69
2023/08/22 07:15:14;;;;;;;11.15;4.60;;;;;;;;;;5030842;28;20037;-70
2023/08/22 07:17:39;;;;;;;12.35;4.38;;;;;;;;;;5030670;28;20087;-70
2023/08/22 07:20:06;;;;;;;12.68;4.53;;;;;;;;;;5031942;28;20029;-69
2023/08/22 07:22:33;;;;;;;14.00;4.20;;;;;;;;;;5028287;28;20036;-70
2023/08/22 07:24:58;;;;;;;10.82;3.97;;;;;;;;;;5025083;28;20040;-71
2023/08/22 07:27:24;;;;;;;12.07;3.83;;;;;;;;;;5041919;28;20395;-71
2023/08/22 07:29:50;;;;;;;14.80;4.50;;;;;;;;;;5043115;28;20021;-71
2023/08/22 07:32:18;;;;;;;17.23;4.97;;;;;;;;;;5042128;28;20040;-70
2023/08/22 07:34:45;;;;;;;8.55;5.50;;;;;;;;;;5039826;28;20034;-70
2023/08/22 07:37:13;;;;;;;11.27;5.00;;;;;;;;;;5048410;28;20033;-70
2023/08/22 07:39:39;;;;;;;14.52;5.72;;;;;;;;;;5051238;28;20147;-71
2023/08/22 07:42:05;;;;;;;11.85;4.90;;;;;;;;;;5051192;28;20051;-70
2023/08/22 07:44:31;;;;;;;9.48;5.25;;;;;;;;;;5050617;28;20017;-70
2023/08/22 07:46:56;;;;;;;14.35;5.50;;;;;;;;;;5050589;28;20398;-70
2023/08/22 07:49:24;;;;;;;13.00;4.65;;;;;;;;;;5051041;28;20078;-70
2023/08/22 07:51:50;;;;;;;11.98;5.00;;;;;;;;;;5051423;28;20029;-70
2023/08/22 07:54:15;;;;;;;11.70;4.78;;;;;;;;;;5051254;28;20406;-71
2023/08/22 07:56:41;;;;;;;9.77;4.65;;;;;;;;;;5050232;28;20091;-71
2023/08/22 07:59:07;;;;;;;13.73;4.72;;;;;;;;;;5051133;28;20037;-71
2023/08/22 08:01:34;;;;;;;7.97;4.97;;;;;;;;;;5041122;28;20491;-70
2023/08/22 08:04:01;;;;;;;14.23;4.53;;;;;;;;;;5028199;28;20072;-71
2023/08/22 08:06:26;;;;;;;13.45;4.88;;;;;;;;;;5030871;28;20129;-70
2023/08/22 08:08:52;;;;;;;14.20;4.95;;;;;;;;;;5030297;28;20120;-71
2023/08/22 08:11:18;;;;;;;9.70;4.78;;;;;;;;;;5034124;28;20037;-70
2023/08/22 08:13:43;;;;;;;14.65;4.88;;;;;;;;;;5031031;28;20025;-71
2023/08/22 08:16:09;;;;;;;14.45;4.82;;;;;;;;;;5031104;28;20033;-72
2023/08/22 08:18:35;;;;;;;12.98;4.20;;;;;;;;;;5029858;28;20025;-71
2023/08/22 08:21:01;;;;;;;15.70;5.55;;;;;;;;;;5031204;28;20102;-71
2023/08/22 08:23:27;;;;;;;19.48;5.43;;;;;;;;;;5031188;28;20051;-71
2023/08/22 08:25:53;;;;;;;14.85;4.25;;;;;;;;;;5031094;28;20077;-71
2023/08/22 08:28:19;;;;;;;12.88;5.22;;;;;;;;;;5031391;28;20111;-71
2023/08/22 08:30:44;;;;;;;14.25;5.15;;;;;;;;;;5031141;28;20125;-72
2023/08/22 08:33:10;;;;;;;17.60;4.85;;;;;;;;;;5030675;28;20030;-70
2023/08/22 08:35:36;;;;;;;10.43;4.65;;;;;;;;;;5030937;28;20052;-73
2023/08/22 08:38:01;;;;;;;11.00;4.57;;;;;;;;;;5030880;28;20025;-72
2023/08/22 08:40:36;;;;;;;13.73;4.60;;;;;;;;;;5031075;28;20094;-72
2023/08/22 08:43:05;;;;;;;6.88;4.35;;;;;;;;;;5030956;28;20041;-71
2023/08/22 08:45:32;;;;;;;15.05;4.85;;;;;;;;;;5030342;28;20055;-72
2023/08/22 08:47:59;;;;;;;12.38;4.32;;;;;;;;;;5029933;28;20466;-72
2023/08/22 08:50:26;;;;;;;13.05;4.68;;;;;;;;;;5034782;28;20108;-71
2023/08/22 08:52:51;;;;;;;10.43;4.85;;;;;;;;;;5034421;28;20105;-71
2023/08/22 08:55:17;;;;;;;8.63;4.32;;;;;;;;;;5034509;28;20029;-71
2023/08/22 08:57:43;;;;;;;11.25;4.53;;;;;;;;;;5033758;28;20370;-71
2023/08/22 09:00:09;;;;;;;10.75;4.32;;;;;;;;;;5034184;28;20025;-72
2023/08/22 09:02:35;;;;;;;14.73;4.85;;;;;;;;;;5034271;28;20087;-72
2023/08/22 09:05:04;;;;;;;7.78;4.53;;;;;;;;;;5033143;28;20021;-71
2023/08/22 09:07:30;;;;;;;9.52;4.45;;;;;;;;;;5034369;28;20114;-72
2023/08/22 09:09:58;;;;;;;8.98;4.43;;;;;;;;;;5034416;28;20120;-72
2023/08/22 09:12:32;;;;;;;10.68;4.90;;;;;;;;;;5034199;28;20029;-72
2023/08/22 09:14:58;;;;;;;9.30;4.60;;;;;;;;;;5034207;28;20112;-71
2023/08/22 09:17:28;;;;;;;12.27;5.30;;;;;;;;;;5033905;28;20129;-72
2023/08/22 09:19:54;;;;;;;11.10;5.28;;;;;;;;;;5034510;28;20057;-71
2023/08/22 09:22:19;;;;;;;9.98;4.88;;;;;;;;;;5034006;28;20467;-72
2023/08/22 09:24:53;;;;;;;10.10;4.70;;;;;;;;;;5034008;28;20046;-72
2023/08/22 09:27:26;;;;;;;38.58;13.98;;;;;;;;;;5034302;28;20484;-71
2023/08/22 09:29:52;;;;;;;7.75;4.50;;;;;;;;;;5034352;28;20044;-72
2023/08/22 09:32:23;;;;;;;10.55;4.93;;;;;;;;;;5033823;28;20036;-72
2023/08/22 09:34:56;;;;;;;12.23;6.85;;;;;;;;;;5033473;28;20594;-72
2023/08/22 09:37:38;;;;;;;13.50;9.05;;;;;;;;;;5029234;28;20061;-71
2023/08/22 09:40:09;;;;;;;16.58;11.60;;;;;;;;;;5032797;28;20079;-70
2023/08/22 09:42:39;;;;;;;12.25;10.38;;;;;;;;;;5035877;28;20025;-72
2023/08/22 09:45:07;;;;;;;13.45;11.60;;;;;;;;;;5034577;28;20037;-71
2023/08/22 09:47:39;;;;;;;14.90;11.45;;;;;;;;;;5033912;28;20021;-72
2023/08/22 09:50:06;;;;;;;16.92;14.70;;;;;;;;;;5033060;28;20038;-71
2023/08/22 09:52:36;;;;;;;16.73;13.88;;;;;;;;;;5033676;28;20104;-72
2023/08/22 09:55:02;;;;;;;19.75;17.25;;;;;;;;;;5032539;28;20037;-72
2023/08/22 09:57:29;;;;;;;18.55;16.35;;;;;;;;;;5032170;28;20021;-72
2023/08/22 09:59:55;;;;;;;19.20;16.30;;;;;;;;;;5032426;28;20034;-72
2023/08/22 10:02:21;;;;;;;19.40;16.27;;;;;;;;;;5032607;28;20026;-72
2023/08/22 10:04:47;;;;;;;16.42;14.73;;;;;;;;;;5031960;28;20057;-72
2023/08/22 10:07:14;;;;;;;20.02;15.50;;;;;;;;;;5029791;28;20208;-72
2023/08/22 10:09:42;;;;;;;21.65;17.38;;;;;;;;;;5033222;28;20033;-72
2023/08/22 10:12:11;;;;;;;18.95;15.82;;;;;;;;;;5033417;28;20594;-71
2023/08/22 10:14:48;;;;;;;20.98;15.75;;;;;;;;;;5030814;28;20479;-71
2023/08/22 10:17:14;;;;;;;20.20;15.25;;;;;;;;;;5034910;28;20038;-71
2023/08/22 10:19:44;;;;;;;17.48;15.57;;;;;;;;;;5035683;28;20026;-72
2023/08/22 10:22:14;;;;;;;16.90;14.70;;;;;;;;;;5034705;28;20049;-72
2023/08/22 10:24:41;;;;;;;22.40;12.05;;;;;;;;;;5032694;28;20021;-72
2023/08/22 10:27:10;;;;;;;17.20;12.20;;;;;;;;;;5031077;28;20479;-73
2023/08/22 10:29:47;;;;;;;17.63;13.60;;;;;;;;;;5031076;28;20030;-72
2023/08/22 10:32:20;;;;;;;16.17;10.63;;;;;;;;;;5032843;28;20516;-72
2023/08/22 10:34:46;;;;;;;12.70;10.20;;;;;;;;;;5032788;28;20506;-73
2023/08/22 10:37:11;;;;;;;10.93;8.63;;;;;;;;;;5032890;28;20025;-72
2023/08/22 10:39:39;;;;;;;11.00;9.20;;;;;;;;;;5032386;28;20091;-72
2023/08/22 10:42:25;;;;;;;11.15;8.50;;;;;;;;;;5027733;28;20085;-72
2023/08/22 10:44:57;;;;;;;10.68;8.48;;;;;;;;;;5013319;28;20092;-72
2023/08/22 10:47:27;;;;;;;14.27;8.80;;;;;;;;;;5011839;28;20124;-72
2023/08/22 10:49:55;;;;;;;12.07;8.32;;;;;;;;;;5013145;28;20341;-70
2023/08/22 10:52:28;;;;;;;12.23;8.13;;;;;;;;;;5013511;28;20076;-72
2023/08/22 10:55:10;;;;;;;14.32;8.02;;;;;;;;;;5013605;28;20038;-72
2023/08/22 10:57:47;;;;;;;14.68;10.38;;;;;;;;;;5025549;28;20040;-73
2023/08/22 11:00:19;;;;;;;25.85;22.42;;;;;;;;;;5030131;28;20091;-71
2023/08/22 11:02:49;;;;;;;29.30;23.13;;;;;;;;;;5031304;28;20037;-71
2023/08/22 11:05:16;;;;;;;20.17;16.30;;;;;;;;;;5032490;28;20508;-72
2023/08/22 11:07:46;;;;;;;15.02;11.02;;;;;;;;;;5032392;28;20124;-72
2023/08/22 11:10:14;;;;;;;15.02;11.30;;;;;;;;;;5032793;28;20438;-72
2023/08/22 11:12:40;;;;;;;18.45;15.07;;;;;;;;;;5032130;28;20083;-72
2023/08/22 11:15:07;;;;;;;15.50;12.73;;;;;;;;;;5032203;28;20072;-72
2023/08/22 11:17:37;;;;;;;9.50;5.93;;;;;;;;;;5032213;28;20502;-73
2023/08/22 11:20:04;;;;;;;9.23;5.65;;;;;;;;;;5032403;28;20088;-72
2023/08/22 11:22:31;;;;;;;10.68;5.60;;;;;;;;;;5035627;28;20021;-71
2023/08/22 11:24:57;;;;;;;6.57;5.88;;;;;;;;;;5049551;28;20033;-71
2023/08/22 11:27:23;;;;;;;8.20;5.90;;;;;;;;;;5050866;28;20379;-71
2023/08/22 11:29:53;;;;;;;7.15;5.50;;;;;;;;;;5052184;28;20112;-70
2023/08/22 11:32:26;;;;;;;9.45;6.57;;;;;;;;;;5052428;28;20021;-70
2023/08/22 11:35:01;;;;;;;9.63;8.13;;;;;;;;;;5051448;28;20029;-70
2023/08/22 11:37:33;;;;;;;9.95;6.80;;;;;;;;;;5051903;28;20037;-71
2023/08/22 11:39:59;;;;;;;7.63;5.78;;;;;;;;;;5051981;28;20033;-71
2023/08/22 11:42:30;;;;;;;10.15;6.13;;;;;;;;;;5052009;28;20036;-71
2023/08/22 11:45:02;;;;;;;8.43;5.93;;;;;;;;;;5052017;28;20037;-71
2023/08/22 11:47:54;;;;;;;11.10;6.72;;;;;;;;;;5051631;28;20111;-71
2023/08/22 11:50:24;;;;;;;16.65;10.05;;;;;;;;;;5052083;28;20134;-70
2023/08/22 11:52:56;;;;;;;14.50;9.55;;;;;;;;;;5051824;28;20036;-71
2023/08/22 11:55:25;;;;;;;7.65;5.47;;;;;;;;;;5051615;28;20029;-71
2023/08/22 11:57:57;;;;;;;8.98;6.07;;;;;;;;;;5051585;28;20029;-71
2023/08/22 12:00:26;;;;;;;7.72;5.95;;;;;;;;;;5050454;28;20565;-70
2023/08/22 12:02:53;;;;;;;7.47;5.35;;;;;;;;;;5052017;28;20108;-70
2023/08/22 12:05:38;;;;;;;13.05;6.60;;;;;;;;;;5051910;28;20036;-70
2023/08/22 12:08:10;;;;;;;9.82;6.55;;;;;;;;;;5050462;28;20036;-71
2023/08/22 12:10:51;;;;;;;10.05;7.32;;;;;;;;;;5051631;28;20079;-70
2023/08/22 12:13:19;;;;;;;11.70;6.68;;;;;;;;;;5052041;28;20482;-70
2023/08/22 12:15:45;;;;;;;10.85;6.40;;;;;;;;;;5051989;28;20064;-70
2023/08/22 12:18:12;;;;;;;10.68;8.68;;;;;;;;;;5051615;28;20116;-69
2023/08/22 12:20:40;;;;;;;13.52;8.90;;;;;;;;;;5050254;28;20052;-70
2023/08/22 12:23:07;;;;;;;17.80;8.07;;;;;;;;;;5050924;28;20593;-71
2023/08/22 12:25:37;;;;;;;12.18;8.50;;;;;;;;;;5051533;28;20032;-70
2023/08/22 12:28:04;;;;;;;12.93;10.45;;;;;;;;;;5050153;28;20041;-71
2023/08/22 12:30:33;;;;;;;12.43;11.23;;;;;;;;;;5032358;28;20083;-71
2023/08/22 12:33:00;;;;;;;13.32;12.00;;;;;;;;;;5031205;28;20112;-70
2023/08/22 12:35:26;;;;;;;16.10;11.98;;;;;;;;;;5031623;28;20017;-71
2023/08/22 12:37:52;;;;;;;19.98;14.45;;;;;;;;;;5031227;28;20105;-72
2023/08/22 12:40:18;;;;;;;22.00;14.57;;;;;;;;;;5031837;28;20064;-70
2023/08/22 12:42:47;;;;;;;16.13;14.07;;;;;;;;;;5031664;28;20186;-72
2023/08/22 12:45:12;;;;;;;17.90;15.50;;;;;;;;;;5031571;28;20037;-71
2023/08/22 12:47:40;;;;;;;20.40;14.93;;;;;;;;;;5030856;28;20136;-71
2023/08/22 12:50:07;;;;;;;13.45;12.10;;;;;;;;;;5046479;28;20033;-71
2023/08/22 12:52:33;;;;;;;14.15;12.32;;;;;;;;;;5031103;28;20041;-71
2023/08/22 12:55:00;;;;;;;16.60;14.40;;;;;;;;;;5031747;28;20129;-72
2023/08/22 12:57:26;;;;;;;16.38;14.70;;;;;;;;;;5031226;28;20048;-71
2023/08/22 12:59:52;;;;;;;18.13;16.23;;;;;;;;;;5031102;28;20022;-71
2023/08/22 13:02:19;;;;;;;21.00;17.00;;;;;;;;;;5036248;28;20051;-71
2023/08/22 13:04:44;;;;;;;21.30;14.50;;;;;;;;;;5041963;28;20475;-71
2023/08/22 13:07:10;;;;;;;18.17;14.63;;;;;;;;;;5035201;28;20044;-71
2023/08/22 13:09:36;;;;;;;14.60;12.63;;;;;;;;;;5042450;28;20402;-72
2023/08/22 13:12:02;;;;;;;13.48;11.45;;;;;;;;;;5037929;28;20033;-71
2023/08/22 13:14:27;;;;;;;13.48;11.23;;;;;;;;;;5030259;28;20487;-72
2023/08/22 13:16:54;;;;;;;14.77;10.02;;;;;;;;;;5039691;28;20527;-73
2023/08/22 13:19:20;;;;;;;13.43;9.98;;;;;;;;;;5050810;28;20437;-72
2023/08/22 13:21:46;;;;;;;14.20;12.27;;;;;;;;;;5051059;28;20033;-72
2023/08/22 13:24:12;;;;;;;18.00;12.68;;;;;;;;;;5049681;28;20028;-72
2023/08/22 13:26:41;;;;;;;15.48;11.55;;;;;;;;;;5050833;28;20033;-70
2023/08/22 13:29:06;;;;;;;14.32;11.77;;;;;;;;;;5050704;28;20036;-70
2023/08/22 13:31:33;;;;;;;16.23;12.23;;;;;;;;;;5049577;28;20490;-71
2023/08/22 13:33:59;;;;;;;14.35;12.93;;;;;;;;;;5029642;28;20029;-72
2023/08/22 13:36:24;;;;;;;13.00;11.15;;;;;;;;;;5030539;28;20503;-72
2023/08/22 13:38:50;;;;;;;12.52;10.65;;;;;;;;;;5032919;28;20096;-70
2023/08/22 13:41:16;;;;;;;14.65;11.40;;;;;;;;;;5034047;28;20029;-71
2023/08/22 13:43:41;;;;;;;14.05;11.80;;;;;;;;;;5034297;28;20406;-71
2023/08/22 13:46:07;;;;;;;16.60;12.38;;;;;;;;;;5048328;28;20121;-71
2023/08/22 13:48:33;;;;;;;14.02;12.52;;;;;;;;;;5034092;28;20037;-70
2023/08/22 13:50:59;;;;;;;17.73;14.95;;;;;;;;;;5034382;28;20085;-70
2023/08/22 13:53:25;;;;;;;14.45;12.75;;;;;;;;;;5034264;28;20118;-71
2023/08/22 13:55:51;;;;;;;12.93;11.32;;;;;;;;;;5033710;28;20037;-71
2023/08/22 13:58:17;;;;;;;12.35;10.50;;;;;;;;;;5033896;28;20568;-72
2023/08/22 14:00:42;;;;;;;14.88;12.52;;;;;;;;;;5034243;28;20029;-71
2023/08/22 14:03:08;;;;;;;19.10;12.07;;;;;;;;;;5033807;28;20108;-72
2023/08/22 14:05:34;;;;;;;15.95;12.65;;;;;;;;;;5033623;28;20349;-71
2023/08/22 14:08:00;;;;;;;13.82;12.07;;;;;;;;;;5031743;28;20024;-71
2023/08/22 14:10:26;;;;;;;15.32;13.07;;;;;;;;;;5032718;28;20316;-71
2023/08/22 14:12:52;;;;;;;15.30;11.48;;;;;;;;;;5032954;28;20433;-72
2023/08/22 14:15:18;;;;;;;14.27;11.73;;;;;;;;;;5033838;28;20443;-71
2023/08/22 14:17:44;;;;;;;14.90;12.30;;;;;;;;;;5033774;28;20130;-72
2023/08/22 14:20:10;;;;;;;15.07;12.50;;;;;;;;;;5033653;28;20083;-71
2023/08/22 14:22:36;;;;;;;13.45;12.05;;;;;;;;;;5033541;28;20053;-71
2023/08/22 14:25:03;;;;;;;17.17;12.40;;;;;;;;;;5033539;28;20108;-71
2023/08/22 14:27:29;;;;;;;17.38;13.50;;;;;;;;;;5033042;28;20123;-71
2023/08/22 14:29:55;;;;;;;20.67;13.13;;;;;;;;;;5033505;28;20044;-70
2023/08/22 14:32:20;;;;;;;18.45;12.80;;;;;;;;;;5033910;28;20021;-70